WESTPORT MEDIA Westport In The Media

Enter your "Place, State", US Zip Code or ICAO:  

Cozumel Civ / Mil, Mexico

 Lat: 20.53N, Lon: 86.93W
ICAO Used: MMCZ
Current Conditions
Updated: 1:40 AM GMT-6 WED APR 23 2014
Sun & Moon Information
Partly Cloudy
Partly Cloudy
Temp: 17°C
Humidity: 100%
Wind Speed: CALM
Barometer: 1013 mb
Dewpoint: 17°C
Heat Index: 17°C
Wind Chill: 17°C
Civil Twilight: 4:59 AM GMT-6 Moon Phase:
Waning Crescent Moon
Sunrise: 5:22 AM GMT-6
Sunset: 6:08 PM GMT-6
Civil Twilight: 6:31 PM GMT-6
Forecast for Cozumel Civ / Mil, Mexico:
(Forecast based on TAF for )
1200 PM GMT-6 WED APR 23 2014
  
AFTERNOON EVENING OVERNIGHT
Mostly
Cloudy
Mostly
Cloudy
Partly
Cloudy
ZoneCast:
Dated: 1200 PM GMT-6 WED APR 23 2014
Afternoon...Turning mostly cloudy with winds from the eastnortheast at 14 mph.

Evening...Mostly cloudy with winds from the eastnortheast at 14 mph.

Overnight...Mostly cloudy with winds from the eastnortheast at 14 mph. Turning partly cloudy with winds from the eastnortheast at 6 mph.

Original Encoded TAF:
Dated: 1200 PM GMT-6 WED APR 23 2014
TAF MMCZ 230459Z 2306/2412 09005KT P6SM SCT015 SCT250 
     FM231800 07012KT P6SM BKN015 BKN250 
     FM240600 07005KT P6SM SCT015